createdAt,value
2022-08-22T00:00:15.630Z,23.69
2022-08-22T00:02:58.483Z,24.84
2022-08-22T00:05:48.293Z,23.42
2022-08-22T00:11:10.614Z,23.19
2022-08-22T00:16:21.051Z,22.76
2022-08-22T00:22:05.568Z,22.19
2022-08-22T00:27:15.338Z,22.28
2022-08-22T00:32:33.108Z,22.37
2022-08-22T00:37:47.796Z,22.37
2022-08-22T00:42:53.329Z,22.31
2022-08-22T00:48:15.032Z,22.38
2022-08-22T00:53:29.978Z,22.35
2022-08-22T00:58:38.469Z,22.31
2022-08-22T01:03:54.739Z,22.24
2022-08-22T01:09:09.865Z,22.29
2022-08-22T01:14:34.165Z,22.18
2022-08-22T01:20:27.063Z,22.33
2022-08-22T01:26:07.422Z,22.40
2022-08-22T01:31:44.488Z,22.28
2022-08-22T01:37:24.634Z,22.41
2022-08-22T01:42:49.196Z,22.31
2022-08-22T01:48:05.066Z,22.29
2022-08-22T01:53:14.688Z,22.17
2022-08-22T01:58:25.279Z,22.18
2022-08-22T02:03:35.448Z,21.89
2022-08-22T02:08:50.628Z,21.95
2022-08-22T02:14:03.827Z,21.84
2022-08-22T02:19:15.908Z,21.86
2022-08-22T02:24:33.268Z,21.81
2022-08-22T02:29:42.619Z,22.04
2022-08-22T02:35:17.976Z,22.06
2022-08-22T02:40:28.463Z,22.25
2022-08-22T02:45:51.582Z,22.32
2022-08-22T02:51:22.977Z,22.34
2022-08-22T02:56:35.886Z,22.38
2022-08-22T03:01:42.680Z,22.32
2022-08-22T03:07:23.242Z,22.33
2022-08-22T03:12:45.264Z,22.14
2022-08-22T03:17:54.738Z,22.25
2022-08-22T03:23:09.866Z,22.20
2022-08-22T03:28:25.051Z,22.15
2022-08-22T03:33:31.342Z,22.13
2022-08-22T03:38:34.130Z,21.94
2022-08-22T03:44:14.519Z,21.97
2022-08-22T03:49:39.352Z,22.16
2022-08-22T03:55:08.107Z,22.20
2022-08-22T04:00:22.954Z,22.32
2022-08-22T04:05:54.374Z,22.33
2022-08-22T04:11:19.452Z,22.49
2022-08-22T04:16:46.984Z,22.41
2022-08-22T04:22:22.002Z,22.70
2022-08-22T04:27:36.869Z,22.97
2022-08-22T04:32:57.331Z,23.22
2022-08-22T04:38:24.363Z,23.15
2022-08-22T04:43:42.011Z,23.34
2022-08-22T04:49:13.586Z,23.63
2022-08-22T04:54:48.749Z,23.99
2022-08-22T04:59:52.227Z,24.23
2022-08-22T05:05:19.780Z,23.87
2022-08-22T05:10:40.099Z,22.92
2022-08-22T05:15:51.357Z,23.98
2022-08-22T05:20:57.127Z,24.45
2022-08-22T05:26:02.997Z,23.58
2022-08-22T05:31:24.061Z,23.30
2022-08-22T05:37:03.253Z,23.87
2022-08-22T05:42:13.443Z,24.28
2022-08-22T05:47:38.569Z,24.46
2022-08-22T05:53:00.493Z,24.41
2022-08-22T05:58:24.652Z,23.07
2022-08-22T06:03:46.304Z,23.94
2022-08-22T06:09:08.837Z,24.47
2022-08-22T06:14:25.025Z,24.76
2022-08-22T06:19:28.383Z,24.52
2022-08-22T06:24:36.119Z,22.77
2022-08-22T06:29:48.996Z,23.54
2022-08-22T06:34:56.591Z,24.32
2022-08-22T06:40:02.857Z,24.45
2022-08-22T06:45:11.080Z,24.35
2022-08-22T06:50:35.935Z,24.23
2022-08-22T06:55:46.797Z,24.42
2022-08-22T07:01:05.235Z,24.59
2022-08-22T07:06:24.189Z,24.79
2022-08-22T07:11:36.796Z,24.94
2022-08-22T07:16:53.980Z,25.18
2022-08-22T07:21:58.734Z,25.06
2022-08-22T07:27:06.108Z,23.43
2022-08-22T07:32:49.080Z,24.26
2022-08-22T07:38:01.088Z,25.28
2022-08-22T07:43:29.420Z,25.64
2022-08-22T07:48:59.491Z,24.52
2022-08-22T07:54:09.430Z,24.98
2022-08-22T07:59:20.008Z,25.05
2022-08-22T08:04:29.779Z,25.19
2022-08-22T08:09:39.071Z,25.31
2022-08-22T08:14:45.256Z,25.42
2022-08-22T08:19:51.153Z,25.39
2022-08-22T08:25:00.025Z,25.42
2022-08-22T08:30:16.188Z,23.90
2022-08-22T08:35:26.295Z,24.40
2022-08-22T08:40:33.050Z,25.15
2022-08-22T08:46:08.792Z,25.81
2022-08-22T08:51:43.152Z,25.16
2022-08-22T08:57:20.088Z,25.29
2022-08-22T09:02:34.838Z,26.20
2022-08-22T09:08:14.195Z,25.76
2022-08-22T09:13:46.563Z,25.45
2022-08-22T09:19:04.035Z,25.85
2022-08-22T09:24:37.875Z,26.34
2022-08-22T09:30:04.576Z,25.12
2022-08-22T09:35:27.310Z,26.02
2022-08-22T09:40:34.155Z,25.41
2022-08-22T09:46:31.572Z,25.51
2022-08-22T09:52:15.161Z,25.26
2022-08-22T09:57:33.397Z,24.62
2022-08-22T10:02:46.122Z,25.33
2022-08-22T10:08:05.589Z,25.85
2022-08-22T10:13:15.198Z,25.38
2022-08-22T10:18:29.965Z,24.86
2022-08-22T10:23:53.900Z,26.11
2022-08-22T10:29:20.687Z,25.94
2022-08-22T10:34:41.181Z,24.59
2022-08-22T10:40:18.702Z,25.80
2022-08-22T10:45:35.633Z,26.29
2022-08-22T10:50:48.471Z,25.31
2022-08-22T10:56:15.116Z,26.20
2022-08-22T11:01:37.809Z,25.02
2022-08-22T11:07:22.120Z,25.81
2022-08-22T11:12:41.690Z,25.06
2022-08-22T11:18:13.013Z,25.90
2022-08-22T11:23:38.105Z,25.66
2022-08-22T11:29:19.319Z,24.93
2022-08-22T11:34:51.124Z,26.62
2022-08-22T11:40:38.705Z,25.80
2022-08-22T11:45:53.657Z,25.37
2022-08-22T11:51:44.548Z,27.10
2022-08-22T11:56:54.959Z,26.35
2022-08-22T12:02:04.004Z,25.43
2022-08-22T12:07:26.197Z,26.09
2022-08-22T12:12:37.224Z,27.10
2022-08-22T12:17:55.451Z,26.08
2022-08-22T12:23:43.272Z,25.55
2022-08-22T12:29:34.087Z,25.73
2022-08-22T12:35:19.818Z,26.58
2022-08-22T12:41:08.829Z,25.95
2022-08-22T12:46:15.187Z,25.46
2022-08-22T12:51:45.236Z,25.02
2022-08-22T12:57:23.845Z,25.05
2022-08-22T13:02:31.754Z,26.21
2022-08-22T13:07:37.552Z,25.51
2022-08-22T13:12:47.372Z,25.12
2022-08-22T13:17:51.905Z,25.03
2022-08-22T13:22:55.647Z,24.93
2022-08-22T13:28:02.241Z,24.94
2022-08-22T13:33:14.332Z,24.74
2022-08-22T13:38:29.313Z,24.63
2022-08-22T13:43:59.966Z,24.48
2022-08-22T13:49:07.774Z,24.21
2022-08-22T13:54:10.779Z,24.50
2022-08-22T13:59:53.116Z,26.29
2022-08-22T14:05:05.590Z,25.82
2022-08-22T14:10:15.256Z,25.43
2022-08-22T14:15:47.559Z,25.05
2022-08-22T14:21:40.224Z,24.68
2022-08-22T14:27:05.544Z,24.41
2022-08-22T14:32:35.409Z,25.15
2022-08-22T14:37:42.938Z,25.86
2022-08-22T14:42:45.625Z,24.99
2022-08-22T14:48:14.445Z,25.01
2022-08-22T14:53:19.325Z,26.05
2022-08-22T14:58:26.511Z,25.16
2022-08-22T15:03:43.519Z,24.71
2022-08-22T15:08:49.306Z,26.02
2022-08-22T15:14:00.595Z,25.18
2022-08-22T15:19:25.703Z,24.77
2022-08-22T15:24:31.547Z,25.94
2022-08-22T15:29:44.618Z,24.87
2022-08-22T15:34:52.379Z,24.23
2022-08-22T15:40:02.953Z,25.53
2022-08-22T15:45:34.721Z,25.47
2022-08-22T15:50:55.932Z,24.36
2022-08-22T15:56:17.032Z,24.30
2022-08-22T16:01:24.298Z,25.01
2022-08-22T16:06:48.643Z,23.91
2022-08-22T16:11:56.096Z,24.46
2022-08-22T16:16:59.999Z,24.61
2022-08-22T16:22:07.373Z,23.60
2022-08-22T16:27:22.781Z,24.26
2022-08-22T16:32:28.350Z,24.62
2022-08-22T16:37:47.585Z,23.71
2022-08-22T16:43:10.734Z,25.08
2022-08-22T16:48:24.583Z,25.21
2022-08-22T16:53:27.412Z,23.72
2022-08-22T16:59:22.397Z,24.29
2022-08-22T17:04:37.655Z,24.93
2022-08-22T17:10:11.650Z,23.57
2022-08-22T17:15:59.246Z,24.62
2022-08-22T17:21:12.607Z,23.96
2022-08-22T17:26:34.100Z,23.45
2022-08-22T17:32:10.516Z,24.02
2022-08-22T17:37:26.296Z,22.94
2022-08-22T17:42:55.911Z,24.10
2022-08-22T17:48:44.196Z,23.20
2022-08-22T17:53:57.914Z,23.12
2022-08-22T17:59:20.915Z,23.92
2022-08-22T18:04:52.351Z,22.66
2022-08-22T18:10:17.538Z,23.92
2022-08-22T18:15:28.524Z,24.30
2022-08-22T18:20:56.392Z,22.87
2022-08-22T18:26:36.051Z,23.09
2022-08-22T18:32:05.440Z,24.27
2022-08-22T18:37:35.480Z,22.74
2022-08-22T18:43:04.503Z,23.75
2022-08-22T18:48:07.528Z,23.98
2022-08-22T18:54:01.206Z,22.39
2022-08-22T18:59:29.749Z,23.29
2022-08-22T19:04:56.978Z,24.65
2022-08-22T19:10:05.571Z,24.30
2022-08-22T19:15:31.793Z,22.68
2022-08-22T19:21:07.689Z,22.99
2022-08-22T19:26:29.533Z,24.08
2022-08-22T19:31:35.603Z,22.63
2022-08-22T19:36:38.679Z,23.48
2022-08-22T19:41:41.530Z,24.29
2022-08-22T19:47:02.421Z,23.19
2022-08-22T19:52:30.435Z,22.81
2022-08-22T19:57:35.944Z,24.29
2022-08-22T20:03:02.008Z,24.22
2022-08-22T20:08:13.923Z,22.69
2022-08-22T20:13:27.327Z,23.76
2022-08-22T20:19:05.499Z,24.56
2022-08-22T20:24:27.599Z,23.98
2022-08-22T20:29:35.485Z,23.04
2022-08-22T20:34:43.304Z,24.32
2022-08-22T20:40:06.094Z,24.05
2022-08-22T20:45:12.104Z,23.31
2022-08-22T20:50:19.728Z,24.56
2022-08-22T20:55:27.252Z,25.01
2022-08-22T21:00:42.743Z,23.53
2022-08-22T21:05:46.834Z,23.24
2022-08-22T21:11:20.951Z,24.73
2022-08-22T21:16:33.707Z,24.56
2022-08-22T21:21:38.426Z,22.84
2022-08-22T21:26:58.831Z,23.37
2022-08-22T21:32:40.734Z,24.70
2022-08-22T21:37:46.066Z,24.41
2022-08-22T21:43:02.269Z,22.74
2022-08-22T21:48:30.011Z,23.35
2022-08-22T21:53:32.946Z,24.63
2022-08-22T21:58:37.405Z,24.48
2022-08-22T22:03:40.490Z,22.84
2022-08-22T22:08:43.417Z,23.42
2022-08-22T22:13:46.409Z,24.62
2022-08-22T22:18:49.263Z,24.50
2022-08-22T22:23:52.699Z,22.81
2022-08-22T22:28:58.736Z,23.22
2022-08-22T22:34:01.590Z,24.46
2022-08-22T22:39:06.952Z,24.96
2022-08-22T22:44:09.892Z,23.91
2022-08-22T22:49:13.056Z,23.20
2022-08-22T22:54:15.986Z,24.54
2022-08-22T22:59:20.187Z,25.10
2022-08-22T23:04:31.011Z,23.77
2022-08-22T23:09:38.502Z,23.06
2022-08-22T23:14:48.711Z,24.30
2022-08-22T23:19:53.514Z,24.83
2022-08-22T23:24:56.779Z,25.05
2022-08-22T23:30:00.476Z,23.55
2022-08-22T23:35:05.301Z,23.10
2022-08-22T23:40:09.638Z,24.36
2022-08-22T23:45:12.596Z,24.89
2022-08-22T23:50:15.424Z,24.51
2022-08-22T23:55:18.334Z,22.89
